createdAt,value
2023-04-18T00:00:03.215Z,90.36
2023-04-18T00:01:03.182Z,90.78
2023-04-18T00:02:03.276Z,90.57
2023-04-18T00:03:04.692Z,90.78
2023-04-18T00:04:03.372Z,90.78
2023-04-18T00:05:03.275Z,90.88
2023-04-18T00:06:03.132Z,90.57
2023-04-18T00:07:03.125Z,90.78
2023-04-18T00:08:03.248Z,90.98
2023-04-18T00:09:03.155Z,90.98
2023-04-18T00:10:03.091Z,91.08
2023-04-18T00:11:03.139Z,90.98
2023-04-18T00:12:03.111Z,90.88
2023-04-18T00:13:03.047Z,90.78
2023-04-18T00:14:03.062Z,91.19
2023-04-18T00:15:03.094Z,91.08
2023-04-18T00:16:03.129Z,90.78
2023-04-18T00:17:03.105Z,91.19
2023-04-18T00:18:03.145Z,90.88
2023-04-18T00:19:02.990Z,90.78
2023-04-18T00:20:02.997Z,90.88
2023-04-18T00:21:02.966Z,90.26
2023-04-18T00:22:02.965Z,89.95
2023-04-18T00:23:02.948Z,90.26
2023-04-18T00:24:02.943Z,90.06
2023-04-18T00:25:02.953Z,89.95
2023-04-18T00:26:02.947Z,90.06
2023-04-18T00:27:02.898Z,90.06
2023-04-18T00:28:02.914Z,90.16
2023-04-18T00:29:02.881Z,90.36
2023-04-18T00:30:02.879Z,90.36
2023-04-18T00:31:03.274Z,90.57
2023-04-18T00:32:02.899Z,90.67
2023-04-18T00:33:02.896Z,90.36
2023-04-18T00:34:02.832Z,91.23
2023-04-18T00:35:03.313Z,91.85
2023-04-18T00:36:02.810Z,90.92
2023-04-18T00:37:02.822Z,91.02
2023-04-18T00:38:02.791Z,90.81
2023-04-18T00:39:03.633Z,90.81
2023-04-18T00:40:02.778Z,90.81
2023-04-18T00:41:02.762Z,91.23
2023-04-18T00:42:02.765Z,90.51
2023-04-18T00:43:02.748Z,90.61
2023-04-18T00:44:02.730Z,91.02
2023-04-18T00:45:02.714Z,91.74
2023-04-18T00:46:02.722Z,91.13
2023-04-18T00:47:02.694Z,91.13
2023-04-18T00:48:02.718Z,91.13
2023-04-18T00:49:02.678Z,91.13
2023-04-18T00:50:02.666Z,91.02
2023-04-18T00:51:02.652Z,90.81
2023-04-18T00:52:02.640Z,91.23
2023-04-18T00:53:02.624Z,91.44
2023-04-18T00:54:02.650Z,90.81
2023-04-18T00:55:02.608Z,91.23
2023-04-18T00:56:02.600Z,90.92
2023-04-18T00:57:02.584Z,91.13
2023-04-18T00:58:02.587Z,91.02
2023-04-18T00:59:02.570Z,92.05
2023-04-18T01:00:02.555Z,91.64
2023-04-18T01:01:02.703Z,91.53
2023-04-18T01:02:02.700Z,91.53
2023-04-18T01:03:02.919Z,91.53
2023-04-18T01:04:02.567Z,91.23
2023-04-18T01:05:02.495Z,91.85
2023-04-18T01:06:02.510Z,91.23
2023-04-18T01:07:02.479Z,91.02
2023-04-18T01:08:02.519Z,91.13
2023-04-18T01:09:02.460Z,91.23
2023-04-18T01:10:02.465Z,91.44
2023-04-18T01:11:02.444Z,91.44
2023-04-18T01:12:02.428Z,91.53
2023-04-18T01:13:02.427Z,91.13
2023-04-18T01:14:02.426Z,91.74
2023-04-18T01:15:02.397Z,91.85
2023-04-18T01:16:02.425Z,91.53
2023-04-18T01:17:02.364Z,91.95
2023-04-18T01:18:02.396Z,91.85
2023-04-18T01:19:02.347Z,91.74
2023-04-18T01:20:02.377Z,91.74
2023-04-18T01:21:02.356Z,91.44
2023-04-18T01:22:02.331Z,91.44
2023-04-18T01:23:02.309Z,91.64
2023-04-18T01:24:02.306Z,91.95
2023-04-18T01:25:02.324Z,91.53
2023-04-18T01:26:02.283Z,91.64
2023-04-18T01:27:02.317Z,91.85
2023-04-18T01:28:02.259Z,91.64
2023-04-18T01:29:02.259Z,91.74
2023-04-18T01:30:02.374Z,91.33
2023-04-18T01:31:02.275Z,91.33
2023-04-18T01:32:02.228Z,91.44
2023-04-18T01:33:02.337Z,92.05
2023-04-18T01:34:02.198Z,91.95
2023-04-18T01:35:02.178Z,91.23
2023-04-18T01:36:02.232Z,91.95
2023-04-18T01:37:02.292Z,92.16
2023-04-18T01:38:02.153Z,91.53
2023-04-18T01:39:02.168Z,92.16
2023-04-18T01:40:02.146Z,91.74
2023-04-18T01:41:02.135Z,91.74
2023-04-18T01:42:02.230Z,92.46
2023-04-18T01:43:02.140Z,91.85
2023-04-18T01:44:02.098Z,91.74
2023-04-18T01:45:02.082Z,91.95
2023-04-18T01:46:02.067Z,91.33
2023-04-18T01:47:02.192Z,91.64
2023-04-18T01:48:03.039Z,91.85
2023-04-18T01:49:02.035Z,91.13
2023-04-18T01:50:02.045Z,91.74
2023-04-18T01:51:02.017Z,91.33
2023-04-18T01:52:02.057Z,91.33
2023-04-18T01:53:01.993Z,91.53
2023-04-18T01:54:02.063Z,91.53
2023-04-18T01:55:01.981Z,91.74
2023-04-18T01:56:02.013Z,91.33
2023-04-18T01:57:01.971Z,92.16
2023-04-18T01:58:01.971Z,91.85
2023-04-18T01:59:01.942Z,92.05
2023-04-18T02:00:01.945Z,91.95
2023-04-18T02:01:02.017Z,91.58
2023-04-18T02:02:01.972Z,91.99
2023-04-18T02:03:02.106Z,91.68
2023-04-18T02:04:01.971Z,91.99
2023-04-18T02:05:01.870Z,91.99
2023-04-18T02:06:01.946Z,91.89
2023-04-18T02:07:01.945Z,91.68
2023-04-18T02:08:01.851Z,91.99
2023-04-18T02:09:01.830Z,92.20
2023-04-18T02:10:02.046Z,92.50
2023-04-18T02:11:01.809Z,92.10
2023-04-18T02:12:01.821Z,92.50
2023-04-18T02:13:01.803Z,92.61
2023-04-18T02:14:01.786Z,92.71
2023-04-18T02:15:01.843Z,92.92
2023-04-18T02:16:01.855Z,92.34
2023-04-18T02:17:01.924Z,92.44
2023-04-18T02:18:01.800Z,93.06
2023-04-18T02:19:01.710Z,93.06
2023-04-18T02:20:01.717Z,93.06
2023-04-18T02:21:01.723Z,93.16
2023-04-18T02:22:01.774Z,93.37
2023-04-18T02:23:01.683Z,93.27
2023-04-18T02:24:01.687Z,92.86
2023-04-18T02:25:01.699Z,93.06
2023-04-18T02:26:01.669Z,93.06
2023-04-18T02:27:01.632Z,92.86
2023-04-18T02:28:01.642Z,93.16
2023-04-18T02:29:01.609Z,93.06
2023-04-18T02:30:01.644Z,93.06
2023-04-18T02:31:01.599Z,93.68
2023-04-18T02:32:01.829Z,93.88
2023-04-18T02:33:01.852Z,94.40
2023-04-18T02:34:01.562Z,94.09
2023-04-18T02:35:01.616Z,93.88
2023-04-18T02:36:01.568Z,93.58
2023-04-18T02:37:01.565Z,93.16
2023-04-18T02:38:01.530Z,93.27
2023-04-18T02:39:01.517Z,93.16
2023-04-18T02:40:01.509Z,93.58
2023-04-18T02:41:01.486Z,93.16
2023-04-18T02:42:01.490Z,93.27
2023-04-18T02:43:01.564Z,93.58
2023-04-18T02:44:01.464Z,93.37
2023-04-18T02:45:01.442Z,93.06
2023-04-18T02:46:01.542Z,93.16
2023-04-18T02:47:01.515Z,93.79
2023-04-18T02:48:01.462Z,93.88
2023-04-18T02:49:01.401Z,93.88
2023-04-18T02:50:01.460Z,93.48
2023-04-18T02:51:01.380Z,93.68
2023-04-18T02:52:01.394Z,93.16
2023-04-18T02:53:01.365Z,93.27
2023-04-18T02:54:01.359Z,92.96
2023-04-18T02:55:01.361Z,93.27
2023-04-18T02:56:01.637Z,93.06
2023-04-18T02:57:01.350Z,92.55
2023-04-18T02:58:01.344Z,93.02
2023-04-18T02:59:01.362Z,93.02
2023-04-18T03:00:01.287Z,93.23
2023-04-18T03:01:01.316Z,92.71
2023-04-18T03:02:02.204Z,92.20
2023-04-18T03:03:01.450Z,92.30
2023-04-18T03:04:01.271Z,92.82
2023-04-18T03:05:01.358Z,92.71
2023-04-18T03:06:01.448Z,93.12
2023-04-18T03:07:01.218Z,92.82
2023-04-18T03:08:01.208Z,93.12
2023-04-18T03:09:01.206Z,93.43
2023-04-18T03:10:01.188Z,93.43
2023-04-18T03:11:01.184Z,93.02
2023-04-18T03:12:01.153Z,92.92
2023-04-18T03:13:01.161Z,93.43
2023-04-18T03:14:01.134Z,93.84
2023-04-18T03:15:01.127Z,93.54
2023-04-18T03:16:01.150Z,92.86
2023-04-18T03:17:01.114Z,93.06
2023-04-18T03:18:01.282Z,92.92
2023-04-18T03:19:01.095Z,92.86
2023-04-18T03:20:01.086Z,92.82
2023-04-18T03:21:01.070Z,92.76
2023-04-18T03:22:01.063Z,92.40
2023-04-18T03:23:01.060Z,92.40
2023-04-18T03:24:01.042Z,93.02
2023-04-18T03:25:01.041Z,92.92
2023-04-18T03:26:01.018Z,92.71
2023-04-18T03:27:01.254Z,92.86
2023-04-18T03:28:00.998Z,92.50
2023-04-18T03:29:00.984Z,92.50
2023-04-18T03:30:00.994Z,92.92
2023-04-18T03:31:01.044Z,92.92
2023-04-18T03:32:00.963Z,92.20
2023-04-18T03:33:01.002Z,92.61
2023-04-18T03:34:00.934Z,92.10
2023-04-18T03:35:00.920Z,92.20
2023-04-18T03:36:00.907Z,91.89
2023-04-18T03:37:00.893Z,91.89
2023-04-18T03:38:00.878Z,92.10
2023-04-18T03:39:00.872Z,92.34
2023-04-18T03:40:00.865Z,92.55
2023-04-18T03:41:00.862Z,93.64
2023-04-18T03:42:00.846Z,93.99
2023-04-18T03:43:00.848Z,93.99
2023-04-18T03:44:00.811Z,93.79
2023-04-18T03:45:00.809Z,93.79
2023-04-18T03:46:00.836Z,93.64
2023-04-18T03:47:00.800Z,94.60
2023-04-18T03:48:00.892Z,93.99
2023-04-18T03:49:00.777Z,93.37
2023-04-18T03:50:00.755Z,92.96
2023-04-18T03:51:00.778Z,93.12
2023-04-18T03:52:00.738Z,92.50
2023-04-18T03:53:00.745Z,93.02
2023-04-18T03:54:00.710Z,92.92
2023-04-18T03:55:00.707Z,93.02
2023-04-18T03:56:00.691Z,93.02
2023-04-18T03:57:00.702Z,92.86
2023-04-18T03:58:00.664Z,93.02
2023-04-18T03:59:00.670Z,92.71
2023-04-18T04:00:00.647Z,93.12
2023-04-18T04:01:00.667Z,92.76
2023-04-18T04:02:00.692Z,92.71
2023-04-18T04:03:00.778Z,92.71
2023-04-18T04:04:00.687Z,92.50
2023-04-18T04:05:00.671Z,92.30
2023-04-18T04:06:00.582Z,92.50
2023-04-18T04:07:00.589Z,93.33
2023-04-18T04:08:00.588Z,93.16
2023-04-18T04:09:00.563Z,93.27
2023-04-18T04:10:00.540Z,93.06
2023-04-18T04:11:00.551Z,93.48
2023-04-18T04:12:00.582Z,93.27
2023-04-18T04:13:01.324Z,93.27
2023-04-18T04:14:00.505Z,93.16
2023-04-18T04:15:00.493Z,93.16
2023-04-18T04:16:00.621Z,93.27
2023-04-18T04:17:00.512Z,93.27
2023-04-18T04:18:00.516Z,93.37
2023-04-18T04:19:00.461Z,93.58
2023-04-18T04:20:00.441Z,93.68
2023-04-18T04:21:00.443Z,93.48
2023-04-18T04:22:01.234Z,93.48
2023-04-18T04:23:00.424Z,93.58
2023-04-18T04:24:00.611Z,93.79
2023-04-18T04:25:00.396Z,93.68
2023-04-18T04:26:00.378Z,93.68
2023-04-18T04:27:00.376Z,93.88
2023-04-18T04:28:00.349Z,94.20
2023-04-18T04:29:00.358Z,93.68
2023-04-18T04:30:00.330Z,93.27
2023-04-18T04:31:00.333Z,93.06
2023-04-18T04:32:00.331Z,93.06
2023-04-18T04:33:00.323Z,93.27
2023-04-18T04:34:00.292Z,93.37
2023-04-18T04:35:00.293Z,93.88
2023-04-18T04:36:00.267Z,93.79
2023-04-18T04:37:00.262Z,93.79
2023-04-18T04:38:00.249Z,93.88
2023-04-18T04:39:00.241Z,94.09
2023-04-18T04:40:00.224Z,94.09
2023-04-18T04:41:00.221Z,94.30
2023-04-18T04:42:00.265Z,95.12
2023-04-18T04:43:00.193Z,95.33
2023-04-18T04:44:00.188Z,95.33
2023-04-18T04:45:00.331Z,95.23
2023-04-18T04:46:00.245Z,95.12
2023-04-18T04:47:00.156Z,94.92
2023-04-18T04:48:00.266Z,95.02
2023-04-18T04:49:00.161Z,94.92
2023-04-18T04:50:00.176Z,94.92
2023-04-18T04:51:00.142Z,95.12
2023-04-18T04:52:01.916Z,95.12
2023-04-18T04:53:00.904Z,95.02
2023-04-18T04:54:00.088Z,94.81
2023-04-18T04:55:00.094Z,94.71
2023-04-18T04:56:00.048Z,94.60
2023-04-18T04:57:00.061Z,94.81
2023-04-18T04:58:00.024Z,95.12
2023-04-18T04:59:00.030Z,95.74
2023-04-18T05:00:00.009Z,95.12
2023-04-18T05:01:00.030Z,94.71
2023-04-18T05:02:00.007Z,94.20
2023-04-18T05:03:00.164Z,94.30
2023-04-18T05:04:00.050Z,94.51
2023-04-18T05:04:59.961Z,94.81
2023-04-18T05:05:59.955Z,95.12
2023-04-18T05:06:59.944Z,95.33
2023-04-18T05:07:59.943Z,95.43
2023-04-18T05:08:59.922Z,95.43
2023-04-18T05:09:59.901Z,95.53
2023-04-18T05:10:59.897Z,95.33
2023-04-18T05:11:59.884Z,95.12
2023-04-18T05:12:59.871Z,95.23
2023-04-18T05:13:59.862Z,95.33
2023-04-18T05:14:59.865Z,95.43
2023-04-18T05:15:59.843Z,94.92
2023-04-18T05:16:59.945Z,94.92
2023-04-18T05:17:59.880Z,95.23
2023-04-18T05:18:59.811Z,95.43
2023-04-18T05:19:59.802Z,95.33
2023-04-18T05:20:59.798Z,95.53
2023-04-18T05:21:59.778Z,95.74
2023-04-18T05:22:59.771Z,95.95
2023-04-18T05:23:59.761Z,96.15
2023-04-18T05:24:59.942Z,96.25
2023-04-18T05:25:59.768Z,96.25
2023-04-18T05:26:59.733Z,96.25
2023-04-18T05:27:59.712Z,96.25
2023-04-18T05:28:59.710Z,96.15
2023-04-18T05:29:59.697Z,95.74
2023-04-18T05:30:59.752Z,94.71
2023-04-18T05:31:59.671Z,94.81
2023-04-18T05:32:59.716Z,94.87
2023-04-18T05:33:59.861Z,95.59
2023-04-18T05:34:59.653Z,94.98
2023-04-18T05:35:59.681Z,94.46
2023-04-18T05:36:59.632Z,94.15
2023-04-18T05:37:59.627Z,94.15
2023-04-18T05:38:59.608Z,93.95
2023-04-18T05:40:00.722Z,94.05
2023-04-18T05:40:59.590Z,94.26
2023-04-18T05:41:59.580Z,94.05
2023-04-18T05:42:59.563Z,94.05
2023-04-18T05:44:05.426Z,94.36
2023-04-18T05:45:00.557Z,94.05
2023-04-18T05:45:59.577Z,94.36
2023-04-18T05:46:59.531Z,94.31
2023-04-18T05:47:59.570Z,94.73
2023-04-18T05:48:59.509Z,94.73
2023-04-18T05:49:59.487Z,94.42
2023-04-18T05:50:59.490Z,94.21
2023-04-18T05:51:59.461Z,94.21
2023-04-18T05:52:59.477Z,94.31
2023-04-18T05:53:59.439Z,94.31
2023-04-18T05:54:59.444Z,94.21
2023-04-18T05:55:59.419Z,94.31
2023-04-18T05:56:59.420Z,94.31
2023-04-18T05:57:59.393Z,94.31
2023-04-18T05:58:59.393Z,94.21
2023-04-18T05:59:59.384Z,94.11
2023-04-18T06:00:59.380Z,93.96
2023-04-18T06:01:59.374Z,93.65
2023-04-18T06:02:59.550Z,94.37
2023-04-18T06:03:59.429Z,93.96
2023-04-18T06:04:59.576Z,93.55
2023-04-18T06:05:59.364Z,92.93
2023-04-18T06:06:59.319Z,92.01
2023-04-18T06:07:59.297Z,92.01
2023-04-18T06:08:59.295Z,92.11
2023-04-18T06:09:59.284Z,91.35
2023-04-18T06:10:59.285Z,90.53
2023-04-18T06:11:59.252Z,90.53
2023-04-18T06:12:59.250Z,90.53
2023-04-18T06:13:59.233Z,90.53
2023-04-18T06:14:59.230Z,90.63
2023-04-18T06:15:59.234Z,90.18
2023-04-18T06:16:59.421Z,90.69
2023-04-18T06:17:59.213Z,90.48
2023-04-18T06:19:01.221Z,90.18
2023-04-18T06:19:59.185Z,90.28
2023-04-18T06:20:59.175Z,90.89
2023-04-18T06:21:59.158Z,90.48
2023-04-18T06:22:59.161Z,90.59
2023-04-18T06:23:59.137Z,90.18
2023-04-18T06:24:59.131Z,89.83
2023-04-18T06:25:59.113Z,89.42
2023-04-18T06:26:59.133Z,89.42
2023-04-18T06:27:59.096Z,89.42
2023-04-18T06:28:59.118Z,89.93
2023-04-18T06:29:59.144Z,89.27
2023-04-18T06:30:59.061Z,88.96
2023-04-18T06:31:59.169Z,89.07
2023-04-18T06:32:59.118Z,89.27
2023-04-18T06:33:59.042Z,87.73
2023-04-18T06:34:59.028Z,86.50
2023-04-18T06:35:59.008Z,87.02
2023-04-18T06:36:59.009Z,86.77
2023-04-18T06:37:58.999Z,87.90
2023-04-18T06:38:58.988Z,86.36
2023-04-18T06:39:58.965Z,85.33
2023-04-18T06:40:58.967Z,86.66
2023-04-18T06:41:58.943Z,87.90
2023-04-18T06:42:58.940Z,87.70
2023-04-18T06:44:04.187Z,86.05
2023-04-18T06:44:59.932Z,85.91
2023-04-18T06:45:58.949Z,86.52
2023-04-18T06:46:58.903Z,86.63
2023-04-18T06:47:58.929Z,85.30
2023-04-18T06:48:58.888Z,85.19
2023-04-18T06:49:58.890Z,84.78
2023-04-18T06:50:58.860Z,83.76
2023-04-18T06:51:58.841Z,83.25
2023-04-18T06:52:58.843Z,84.74
2023-04-18T06:53:58.823Z,85.25
2023-04-18T06:54:58.847Z,83.10
2023-04-18T06:55:58.796Z,83.10
2023-04-18T06:56:58.805Z,83.10
2023-04-18T06:57:58.784Z,83.10
2023-04-18T06:58:58.779Z,84.64
2023-04-18T06:59:58.752Z,84.50
2023-04-18T07:00:58.797Z,83.37
2023-04-18T07:01:58.774Z,83.27
2023-04-18T07:02:58.899Z,82.51
2023-04-18T07:03:58.798Z,81.79
2023-04-18T07:04:58.713Z,82.10
2023-04-18T07:05:58.696Z,81.65
2023-04-18T07:06:58.687Z,80.12
2023-04-18T07:07:58.677Z,80.36
2023-04-18T07:08:58.674Z,80.12
2023-04-18T07:09:58.659Z,79.96
2023-04-18T07:10:58.646Z,79.54
2023-04-18T07:11:58.626Z,80.57
2023-04-18T07:12:58.616Z,80.67
2023-04-18T07:13:58.632Z,80.74
2023-04-18T07:14:58.588Z,80.74
2023-04-18T07:15:58.599Z,79.71
2023-04-18T07:16:58.599Z,78.96
2023-04-18T07:17:58.648Z,79.98
2023-04-18T07:18:58.547Z,79.84
2023-04-18T07:19:58.546Z,80.76
2023-04-18T07:20:58.524Z,79.43
2023-04-18T07:21:58.527Z,76.67
2023-04-18T07:22:58.500Z,76.81
2023-04-18T07:23:58.505Z,77.12
2023-04-18T07:24:58.491Z,77.76
2023-04-18T07:25:58.472Z,78.38
2023-04-18T07:26:58.466Z,77.76
2023-04-18T07:27:58.462Z,77.91
2023-04-18T07:28:58.454Z,78.42
2023-04-18T07:29:58.443Z,78.49
2023-04-18T07:30:58.512Z,78.89
2023-04-18T07:31:58.412Z,78.59
2023-04-18T07:32:58.479Z,77.94
2023-04-18T07:33:58.399Z,77.63
2023-04-18T07:34:58.397Z,76.91
2023-04-18T07:35:58.381Z,77.73
2023-04-18T07:36:58.356Z,78.72
2023-04-18T07:37:58.351Z,76.47
2023-04-18T07:38:58.355Z,77.01
2023-04-18T07:39:58.331Z,77.22
2023-04-18T07:40:58.312Z,76.16
2023-04-18T07:41:58.315Z,76.37
2023-04-18T07:42:58.303Z,75.96
2023-04-18T07:43:58.290Z,76.67
2023-04-18T07:44:58.288Z,76.16
2023-04-18T07:45:58.299Z,77.15
2023-04-18T07:46:58.250Z,76.50
2023-04-18T07:47:58.313Z,76.50
2023-04-18T07:48:58.227Z,75.44
2023-04-18T07:49:58.235Z,74.32
2023-04-18T07:50:58.206Z,74.11
2023-04-18T07:51:58.206Z,73.19
2023-04-18T07:52:58.185Z,73.40
2023-04-18T07:53:58.188Z,73.67
2023-04-18T07:54:58.162Z,73.16
2023-04-18T07:55:58.176Z,73.43
2023-04-18T07:56:58.149Z,72.69
2023-04-18T07:57:58.142Z,73.47
2023-04-18T07:58:58.133Z,73.06
2023-04-18T07:59:58.144Z,72.99
2023-04-18T08:00:58.111Z,72.24
2023-04-18T08:01:58.158Z,73.81
2023-04-18T08:02:58.171Z,74.25
2023-04-18T08:03:58.266Z,72.72
2023-04-18T08:04:58.242Z,73.33
2023-04-18T08:05:58.068Z,73.91
2023-04-18T08:06:58.090Z,74.15
2023-04-18T08:07:58.043Z,75.37
2023-04-18T08:08:58.013Z,74.25
2023-04-18T08:09:58.040Z,72.62
2023-04-18T08:10:57.998Z,71.29
2023-04-18T08:11:57.998Z,71.06
2023-04-18T08:12:57.993Z,69.59
2023-04-18T08:13:57.976Z,69.12
2023-04-18T08:14:57.956Z,69.73
2023-04-18T08:15:58.003Z,69.53
2023-04-18T08:16:57.942Z,70.95
2023-04-18T08:17:58.010Z,70.95
2023-04-18T08:18:57.927Z,71.60
2023-04-18T08:19:57.927Z,72.38
2023-04-18T08:20:58.041Z,72.04
2023-04-18T08:21:57.918Z,73.40
2023-04-18T08:23:07.490Z,71.12
2023-04-18T08:23:58.883Z,70.51
2023-04-18T08:25:05.002Z,70.48
2023-04-18T08:25:58.867Z,68.71
2023-04-18T08:26:57.838Z,68.88
2023-04-18T08:27:57.832Z,69.29
2023-04-18T08:28:57.816Z,66.65
2023-04-18T08:29:57.807Z,69.87
2023-04-18T08:30:57.785Z,66.52
2023-04-18T08:31:57.882Z,67.74
2023-04-18T08:32:57.786Z,65.26
2023-04-18T08:33:57.791Z,67.33
2023-04-18T08:34:57.761Z,69.97
2023-04-18T08:35:57.749Z,65.67
2023-04-18T08:36:57.722Z,68.62
2023-04-18T08:37:57.720Z,67.97
2023-04-18T08:38:57.702Z,66.52
2023-04-18T08:39:57.713Z,64.97
2023-04-18T08:40:57.690Z,64.67
2023-04-18T08:41:57.685Z,65.34
2023-04-18T08:42:57.655Z,63.95
2023-04-18T08:43:57.654Z,63.37
2023-04-18T08:44:57.635Z,64.18
2023-04-18T08:45:57.665Z,64.49
2023-04-18T08:46:57.650Z,65.71
2023-04-18T08:47:57.662Z,67.19
2023-04-18T08:48:57.599Z,66.86
2023-04-18T08:49:57.597Z,66.66
2023-04-18T08:50:57.586Z,67.03
2023-04-18T08:51:57.586Z,64.62
2023-04-18T08:52:57.556Z,65.10
2023-04-18T08:53:57.548Z,64.06
2023-04-18T08:54:57.549Z,63.91
2023-04-18T08:55:57.547Z,65.74
2023-04-18T08:56:57.515Z,65.33
2023-04-18T08:57:57.510Z,66.76
2023-04-18T08:58:57.488Z,65.88
2023-04-18T08:59:57.487Z,64.23
2023-04-18T09:00:57.493Z,64.97
2023-04-18T09:01:57.557Z,64.67
2023-04-18T09:02:57.750Z,63.01
2023-04-18T09:03:57.473Z,63.79
2023-04-18T09:04:57.421Z,61.39
2023-04-18T09:05:57.417Z,64.87
2023-04-18T09:06:57.400Z,68.05
2023-04-18T09:07:57.433Z,65.78
2023-04-18T09:08:57.387Z,63.39
2023-04-18T09:09:57.397Z,62.04
2023-04-18T09:10:57.365Z,60.19
2023-04-18T09:11:57.356Z,63.30
2023-04-18T09:12:57.333Z,61.35
2023-04-18T09:13:57.355Z,58.89
2023-04-18T09:14:57.313Z,59.80
2023-04-18T09:15:57.313Z,58.94
2023-04-18T09:16:57.384Z,59.63
2023-04-18T09:17:57.327Z,62.13
2023-04-18T09:18:57.281Z,62.53
2023-04-18T09:19:57.280Z,64.79
2023-04-18T09:20:57.258Z,65.00
2023-04-18T09:21:57.253Z,65.55
2023-04-18T09:22:57.236Z,65.72
2023-04-18T09:23:57.233Z,65.42
2023-04-18T09:24:57.225Z,63.86
2023-04-18T09:25:57.208Z,64.70
2023-04-18T09:26:57.243Z,63.82
2023-04-18T09:27:57.198Z,64.06
2023-04-18T09:28:57.166Z,64.39
2023-04-18T09:29:58.005Z,66.05
2023-04-18T09:30:57.190Z,65.51
2023-04-18T09:31:57.149Z,68.66
2023-04-18T09:32:57.152Z,66.09
2023-04-18T09:33:57.937Z,63.73
2023-04-18T09:34:57.113Z,62.24
2023-04-18T09:35:57.270Z,63.26
2023-04-18T09:36:57.105Z,64.00
2023-04-18T09:37:57.105Z,64.78
2023-04-18T09:38:57.440Z,64.07
2023-04-18T09:39:57.070Z,64.78
2023-04-18T09:40:57.055Z,64.27
2023-04-18T09:41:57.067Z,65.31
2023-04-18T09:42:57.030Z,65.62
2023-04-18T09:43:57.014Z,63.56
2023-04-18T09:44:57.007Z,64.01
2023-04-18T09:45:57.382Z,63.09
2023-04-18T09:46:56.992Z,62.82
2023-04-18T09:47:57.070Z,63.20
2023-04-18T09:48:57.010Z,59.85
2023-04-18T09:49:56.964Z,61.04
2023-04-18T09:50:56.953Z,61.60
2023-04-18T09:51:56.937Z,62.72
2023-04-18T09:52:56.922Z,64.14
2023-04-18T09:53:56.930Z,63.73
2023-04-18T09:54:56.899Z,64.75
2023-04-18T09:55:57.826Z,60.66
2023-04-18T09:56:56.880Z,61.35
2023-04-18T09:57:56.878Z,63.34
2023-04-18T09:58:56.860Z,65.33
2023-04-18T09:59:56.869Z,64.32
2023-04-18T10:00:56.929Z,61.19
2023-04-18T10:01:56.900Z,57.21
2023-04-18T10:02:56.878Z,57.06
2023-04-18T10:03:56.907Z,57.59
2023-04-18T10:04:56.831Z,59.06
2023-04-18T10:05:57.950Z,61.24
2023-04-18T10:06:56.770Z,60.89
2023-04-18T10:07:56.782Z,63.08
2023-04-18T10:08:56.778Z,64.53
2023-04-18T10:09:56.915Z,64.06
2023-04-18T10:10:56.722Z,65.20
2023-04-18T10:11:56.721Z,67.54
2023-04-18T10:12:56.703Z,64.46
2023-04-18T10:13:56.718Z,63.92
2023-04-18T10:14:56.684Z,67.14
2023-04-18T10:15:56.754Z,62.24
2023-04-18T10:16:56.673Z,61.23
2023-04-18T10:18:56.646Z,59.88
2023-04-18T10:19:56.672Z,59.65
2023-04-18T10:20:56.625Z,62.89
2023-04-18T10:21:56.627Z,66.16
2023-04-18T10:22:56.683Z,62.79
2023-04-18T10:23:56.601Z,61.17
2023-04-18T10:24:56.600Z,59.52
2023-04-18T10:25:56.579Z,57.98
2023-04-18T10:26:56.556Z,57.62
2023-04-18T10:27:56.567Z,58.65
2023-04-18T10:28:56.812Z,57.68
2023-04-18T10:29:56.540Z,57.91
2023-04-18T10:30:56.607Z,57.36
2023-04-18T10:31:56.576Z,56.45
2023-04-18T10:32:56.537Z,58.87
2023-04-18T10:34:56.483Z,56.65
2023-04-18T10:35:56.517Z,56.76
2023-04-18T10:36:57.273Z,60.26
2023-04-18T10:37:56.466Z,56.76
2023-04-18T10:38:56.439Z,56.35
2023-04-18T10:39:56.435Z,60.66
2023-04-18T10:40:56.421Z,58.62
2023-04-18T10:41:56.418Z,60.16
2023-04-18T10:42:56.398Z,59.08
2023-04-18T10:43:56.398Z,57.84
2023-04-18T10:44:56.373Z,63.09
2023-04-18T10:45:56.375Z,58.12
2023-04-18T10:46:56.365Z,60.41
2023-04-18T10:47:56.386Z,56.24
2023-04-18T10:48:56.331Z,57.43
2023-04-18T10:49:56.340Z,54.36
2023-04-18T10:50:57.133Z,53.98
2023-04-18T10:51:56.307Z,55.49
2023-04-18T10:52:56.303Z,55.29
2023-04-18T10:53:56.291Z,59.48
2023-04-18T10:54:58.447Z,59.76
2023-04-18T10:55:56.265Z,54.36
2023-04-18T10:56:56.250Z,57.25
2023-04-18T10:57:56.254Z,55.06
2023-04-18T10:58:56.235Z,57.78
2023-04-18T10:59:56.407Z,57.94
2023-04-18T11:00:56.237Z,57.79
2023-04-18T11:01:56.231Z,59.48
2023-04-18T11:02:56.538Z,58.17
2023-04-18T11:03:56.245Z,58.25
2023-04-18T11:04:56.209Z,55.66
2023-04-18T11:05:56.165Z,62.25
2023-04-18T11:06:56.141Z,56.56
2023-04-18T11:07:56.138Z,55.04
2023-04-18T11:08:56.141Z,57.14
2023-04-18T11:09:56.116Z,56.73
2023-04-18T11:10:56.101Z,57.14
2023-04-18T11:11:56.095Z,56.56
2023-04-18T11:12:56.131Z,57.36
2023-04-18T11:13:56.084Z,57.03
2023-04-18T11:14:56.067Z,58.37
2023-04-18T11:15:56.057Z,56.68
2023-04-18T11:16:56.077Z,59.25
2023-04-18T11:17:56.073Z,55.29
2023-04-18T11:18:56.021Z,54.71
2023-04-18T11:19:56.011Z,54.58
2023-04-18T11:20:56.002Z,58.47
2023-04-18T11:21:55.990Z,56.82
2023-04-18T11:22:55.983Z,59.72
2023-04-18T11:23:55.971Z,56.57
2023-04-18T11:24:55.959Z,60.02
2023-04-18T11:25:55.948Z,58.54
2023-04-18T11:26:56.442Z,55.94
2023-04-18T11:27:55.919Z,56.07
2023-04-18T11:28:55.920Z,56.68
2023-04-18T11:29:55.928Z,54.25
2023-04-18T11:30:55.903Z,57.05
2023-04-18T11:31:58.591Z,59.09
2023-04-18T11:32:56.014Z,54.43
2023-04-18T11:33:55.863Z,57.31
2023-04-18T11:34:55.856Z,58.54
2023-04-18T11:35:55.829Z,56.20
2023-04-18T11:36:55.838Z,55.79
2023-04-18T11:37:55.828Z,55.06
2023-04-18T11:38:55.833Z,56.22
2023-04-18T11:39:55.792Z,53.65
2023-04-18T11:40:55.799Z,51.14
2023-04-18T11:41:55.775Z,51.91
2023-04-18T11:42:55.772Z,51.43
2023-04-18T11:43:55.746Z,52.54
2023-04-18T11:44:55.746Z,52.39
2023-04-18T11:45:55.854Z,53.45
2023-04-18T11:46:55.743Z,49.80
2023-04-18T11:47:55.719Z,52.24
2023-04-18T11:48:55.735Z,50.26
2023-04-18T11:49:57.087Z,52.29
2023-04-18T11:50:56.489Z,52.14
2023-04-18T11:51:55.666Z,53.55
2023-04-18T11:52:55.668Z,51.84
2023-04-18T11:53:55.648Z,52.72
2023-04-18T11:54:55.992Z,51.36
2023-04-18T11:55:55.646Z,52.74
2023-04-18T11:56:55.644Z,51.72
2023-04-18T11:57:55.609Z,49.51
2023-04-18T11:58:55.605Z,51.51
2023-04-18T11:59:56.432Z,50.93
2023-04-18T12:00:55.583Z,51.06
2023-04-18T12:01:58.743Z,50.31
2023-04-18T12:02:55.634Z,50.21
2023-04-18T12:03:55.976Z,52.69
2023-04-18T12:04:56.095Z,51.21
2023-04-18T12:05:55.708Z,54.07
2023-04-18T12:06:55.529Z,51.76
2023-04-18T12:07:55.493Z,52.80
2023-04-18T12:08:55.500Z,51.46
2023-04-18T12:09:55.487Z,48.19
2023-04-18T12:10:55.477Z,50.74
2023-04-18T12:11:55.474Z,46.42
2023-04-18T12:12:55.457Z,46.31
2023-04-18T12:13:55.442Z,49.97
2023-04-18T12:14:55.437Z,47.57
2023-04-18T12:15:55.464Z,55.44
2023-04-18T12:16:55.419Z,49.52
2023-04-18T12:17:55.429Z,47.37
2023-04-18T12:18:55.388Z,48.35
2023-04-18T12:19:55.387Z,46.73
2023-04-18T12:20:55.367Z,49.80
2023-04-18T12:21:55.353Z,43.69
2023-04-18T12:22:55.358Z,44.63
2023-04-18T12:23:55.355Z,45.54
2023-04-18T12:24:55.325Z,47.66
2023-04-18T12:25:55.328Z,47.06
2023-04-18T12:26:55.315Z,48.44
2023-04-18T12:27:55.301Z,48.49
2023-04-18T12:28:55.300Z,50.81
2023-04-18T12:29:55.272Z,48.64
2023-04-18T12:30:55.266Z,48.60
2023-04-18T12:31:55.332Z,50.49
2023-04-18T12:32:55.335Z,47.30
2023-04-18T12:33:55.223Z,49.24
2023-04-18T12:34:55.231Z,49.79
2023-04-18T12:35:55.197Z,49.99
2023-04-18T12:36:55.202Z,50.54
2023-04-18T12:37:55.181Z,48.98
2023-04-18T12:38:55.182Z,54.75
2023-04-18T12:39:55.153Z,53.32
2023-04-18T12:40:55.172Z,56.32
2023-04-18T12:41:55.142Z,56.82
2023-04-18T12:42:55.140Z,54.25
2023-04-18T12:43:55.117Z,53.17
2023-04-18T12:44:55.126Z,51.44
2023-04-18T12:45:55.102Z,51.86
2023-04-18T12:46:55.146Z,49.05
2023-04-18T12:47:55.142Z,49.01
2023-04-18T12:48:55.066Z,53.14
2023-04-18T12:49:55.057Z,48.16
2023-04-18T12:50:55.079Z,48.05
2023-04-18T12:51:55.029Z,49.36
2023-04-18T12:52:55.054Z,49.43
2023-04-18T12:53:55.016Z,48.79